Time;durP1;ratioP1;P1;durP2;ratioP2;P2;SDS_P1;SDS_P2;PMS_P1;PMS_P2;Temp;Humidity;BMP_temperature;BMP_pressure;BME280_temperature;BME280_humidity;BME280_pressure;Samples;Min_cycle;Max_cycle;Signal;HPM_P1;HPM_P2
2022/09/05 00:01:23;;;;;;;6.60;4.53;;;;;;;19.64;66.26;100979.47;4099163;29;20416;-70
2022/09/05 00:03:40;;;;;;;6.82;4.28;;;;;;;19.66;66.41;100979.44;4128653;28;20088;-70
2022/09/05 00:06:06;;;;;;;6.85;3.72;;;;;;;19.67;66.46;100982.03;4099226;29;20044;-70
2022/09/05 00:08:17;;;;;;;7.05;3.72;;;;;;;19.65;66.70;100975.03;4090858;28;20141;-70
2022/09/05 00:10:31;;;;;;;6.30;3.92;;;;;;;19.61;66.52;100983.88;4097861;29;20046;-69
2022/09/05 00:12:40;;;;;;;6.13;4.00;;;;;;;19.58;67.05;100976.03;4098418;28;20042;-69
2022/09/05 00:15:01;;;;;;;7.20;3.58;;;;;;;19.54;66.96;100968.16;4097157;29;20125;-69
2022/09/05 00:17:29;;;;;;;7.63;4.60;;;;;;;19.58;67.20;100970.75;4109299;28;20042;-69
2022/09/05 00:20:02;;;;;;;7.00;4.20;;;;;;;19.59;66.98;100972.50;4097327;28;20085;-69
2022/09/05 00:22:37;;;;;;;5.10;3.83;;;;;;;19.56;67.35;100975.19;4113450;28;20043;-69
2022/09/05 00:25:16;;;;;;;7.63;3.80;;;;;;;19.52;67.50;100975.25;4096246;29;20505;-69
2022/09/05 00:27:45;;;;;;;5.63;4.13;;;;;;;19.45;67.74;100968.31;4098584;28;20449;-69
2022/09/05 00:30:02;;;;;;;7.88;4.35;;;;;;;19.46;67.62;100970.03;4097723;29;20047;-69
2022/09/05 00:32:38;;;;;;;11.55;5.25;;;;;;;19.43;68.15;100959.53;4126190;28;20046;-69
2022/09/05 00:35:08;;;;;;;5.05;3.63;;;;;;;19.42;68.01;100971.00;4097684;28;20039;-69
2022/09/05 00:37:11;;;;;;;7.10;3.50;;;;;;;19.39;67.83;100967.50;4125334;28;20519;-68
2022/09/05 00:39:21;;;;;;;7.70;4.30;;;;;;;19.40;68.21;100969.25;4098703;28;20054;-69
2022/09/05 00:41:26;;;;;;;7.68;3.95;;;;;;;19.43;68.53;100969.22;4086460;29;20050;-68
2022/09/05 00:43:34;;;;;;;9.43;4.22;;;;;;;19.40;68.96;100964.00;4112666;28;20884;-69
2022/09/05 00:45:42;;;;;;;5.35;3.38;;;;;;;19.36;69.24;100974.59;4101448;28;20051;-68
2022/09/05 00:47:49;;;;;;;5.90;3.55;;;;;;;19.34;69.33;100970.22;4097592;28;20043;-68
2022/09/05 00:49:59;;;;;;;7.53;4.38;;;;;;;19.34;69.03;100971.06;4096822;29;20066;-69
2022/09/05 00:52:06;;;;;;;7.20;3.83;;;;;;;19.34;69.17;100973.72;4095922;28;20050;-69
2022/09/05 00:54:24;;;;;;;8.07;4.10;;;;;;;19.33;68.97;100969.34;4098613;28;20046;-69
2022/09/05 00:56:57;;;;;;;4.45;3.42;;;;;;;19.33;68.99;100973.75;4119301;28;20512;-69
2022/09/05 00:59:23;;;;;;;5.50;4.20;;;;;;;19.27;69.66;100971.19;4119028;28;20046;-69
2022/09/05 01:01:31;;;;;;;6.45;3.85;;;;;;;19.25;70.11;100978.25;4056244;28;20059;-69
2022/09/05 01:03:49;;;;;;;6.85;3.85;;;;;;;19.29;69.77;100967.66;4127744;28;20034;-69
2022/09/05 01:06:10;;;;;;;4.60;3.30;;;;;;;19.28;69.73;100967.66;4089518;29;20102;-69
2022/09/05 01:08:26;;;;;;;6.90;3.55;;;;;;;19.25;69.99;100965.09;4092844;29;20043;-69
2022/09/05 01:10:40;;;;;;;4.90;3.22;;;;;;;19.23;70.01;100962.47;4094971;29;20500;-69
2022/09/05 01:12:55;;;;;;;5.25;3.70;;;;;;;19.25;70.48;100954.53;4097684;29;20042;-69
2022/09/05 01:15:13;;;;;;;5.70;3.90;;;;;;;19.22;70.28;100954.59;4095606;28;20130;-70
2022/09/05 01:17:34;;;;;;;6.50;4.03;;;;;;;19.20;70.09;100957.22;4097991;28;20117;-70
2022/09/05 01:19:57;;;;;;;5.63;3.75;;;;;;;19.18;70.38;100953.75;4096699;29;20043;-70
2022/09/05 01:22:35;;;;;;;6.72;3.67;;;;;;;19.22;70.14;100955.44;4129207;28;20407;-70
2022/09/05 01:24:53;;;;;;;6.00;4.13;;;;;;;19.19;70.39;100966.03;4096562;28;20043;-69
2022/09/05 01:27:48;;;;;;;7.38;3.97;;;;;;;19.16;70.48;100966.94;4091738;28;20585;-70
2022/09/05 01:30:17;;;;;;;7.13;4.03;;;;;;;19.07;70.63;100961.81;4064012;29;20048;-69
2022/09/05 01:32:29;;;;;;;8.02;3.85;;;;;;;19.09;70.52;100960.00;4064510;29;20044;-69
2022/09/05 01:34:46;;;;;;;4.97;3.70;;;;;;;19.11;70.68;100958.22;4059290;29;20063;-68
2022/09/05 01:36:55;;;;;;;6.18;3.55;;;;;;;19.08;70.27;100960.88;4098796;29;20427;-69
2022/09/05 01:39:04;;;;;;;6.22;3.30;;;;;;;19.08;70.32;100958.25;4096076;29;20046;-69
2022/09/05 01:41:33;;;;;;;5.97;3.92;;;;;;;18.99;70.61;100956.59;4097509;28;20055;-69
2022/09/05 01:43:52;;;;;;;7.32;4.28;;;;;;;18.98;70.36;100941.72;4098025;28;20038;-69
2022/09/05 01:46:00;;;;;;;4.78;3.67;;;;;;;18.91;70.59;100941.78;4097008;29;20523;-69
2022/09/05 01:48:14;;;;;;;7.15;3.97;;;;;;;18.89;70.68;100938.31;4097971;28;20088;-69
2022/09/05 01:50:32;;;;;;;6.55;4.60;;;;;;;18.83;70.74;100947.13;4129694;28;20042;-69
2022/09/05 01:52:51;;;;;;;4.90;3.88;;;;;;;18.82;70.64;100946.25;4096755;28;20050;-69
2022/09/05 01:55:30;;;;;;;12.20;4.72;;;;;;;18.79;70.55;100941.03;4104776;28;20131;-69
2022/09/05 01:57:47;;;;;;;14.27;5.15;;;;;;;18.68;70.93;100942.91;4127283;28;20479;-70
2022/09/05 01:59:57;;;;;;;6.63;4.32;;;;;;;18.70;70.84;100945.53;4097494;29;20035;-69
2022/09/05 02:02:18;;;;;;;5.75;3.42;;;;;;;18.73;70.27;100940.22;4098034;28;20043;-69
2022/09/05 02:04:42;;;;;;;6.95;4.35;;;;;;;18.73;70.38;100942.84;4093893;28;20039;-69
2022/09/05 02:06:51;;;;;;;6.30;3.70;;;;;;;18.75;70.25;100941.06;4098833;28;20053;-69
2022/09/05 02:09:09;;;;;;;6.40;3.30;;;;;;;18.74;70.41;100942.84;4100149;29;20130;-69
2022/09/05 02:11:13;;;;;;;5.28;4.20;;;;;;;18.72;70.61;100947.25;4099948;29;20404;-68
2022/09/05 02:13:26;;;;;;;6.03;3.97;;;;;;;18.71;70.73;100952.56;4129223;28;20034;-69
2022/09/05 02:15:40;;;;;;;7.22;3.78;;;;;;;18.63;70.67;100947.34;4100972;29;20066;-69
2022/09/05 02:17:51;;;;;;;4.60;3.58;;;;;;;18.57;70.96;100947.44;4099385;29;20039;-69
2022/09/05 02:20:06;;;;;;;4.82;3.30;;;;;;;18.47;71.08;100955.44;4095733;29;20050;-69
2022/09/05 02:22:12;;;;;;;7.30;3.80;;;;;;;18.36;71.08;100961.69;4100413;28;20051;-69
2022/09/05 02:24:21;;;;;;;7.22;3.95;;;;;;;18.34;71.55;100955.56;4099431;28;20047;-69
2022/09/05 02:26:30;;;;;;;5.10;3.75;;;;;;;18.38;70.94;100957.28;4097294;29;20039;-69
2022/09/05 02:28:41;;;;;;;4.75;3.55;;;;;;;18.29;71.00;100955.59;4115661;28;20053;-70
2022/09/05 02:30:50;;;;;;;6.20;3.72;;;;;;;18.22;70.63;100953.94;4100472;29;20075;-69
2022/09/05 02:33:21;;;;;;;4.75;3.67;;;;;;;18.19;70.43;100953.97;4094676;28;20484;-69
2022/09/05 02:35:30;;;;;;;7.43;3.67;;;;;;;18.25;70.59;100946.00;4100211;28;20047;-69
2022/09/05 02:37:43;;;;;;;5.82;3.88;;;;;;;18.25;70.25;100953.88;4099368;28;20070;-69
2022/09/05 02:40:16;;;;;;;7.15;4.10;;;;;;;18.32;69.89;100952.94;4125137;28;20570;-69
2022/09/05 02:42:48;;;;;;;5.50;4.20;;;;;;;18.29;69.33;100947.72;4100759;28;20043;-70
2022/09/05 02:45:22;;;;;;;8.18;4.80;;;;;;;18.19;69.66;100954.81;4100007;28;20109;-69
2022/09/05 02:47:36;;;;;;;4.95;3.65;;;;;;;18.11;69.84;100952.25;4101004;28;20045;-69
2022/09/05 02:49:54;;;;;;;5.53;3.75;;;;;;;18.05;69.90;100952.31;4096220;29;20572;-69
2022/09/05 02:52:19;;;;;;;5.82;3.97;;;;;;;18.08;69.90;100949.66;4095254;28;20047;-70
2022/09/05 02:54:47;;;;;;;5.47;4.40;;;;;;;18.15;70.20;100953.13;4099761;29;20031;-69
2022/09/05 02:57:31;;;;;;;7.75;4.72;;;;;;;18.23;69.68;100950.41;4094522;29;20120;-70
2022/09/05 03:00:05;;;;;;;7.13;3.75;;;;;;;18.27;69.22;100946.88;4106166;28;20043;-69
2022/09/05 03:02:19;;;;;;;5.93;3.78;;;;;;;18.30;69.10;100949.47;4098486;29;20387;-69
2022/09/05 03:04:39;;;;;;;7.25;3.95;;;;;;;18.20;69.22;100950.44;4099414;29;20066;-69
2022/09/05 03:06:57;;;;;;;9.50;3.97;;;;;;;18.16;69.50;100954.00;4099802;28;20146;-69
2022/09/05 03:09:16;;;;;;;5.38;3.78;;;;;;;18.14;69.56;100941.72;4092646;29;20035;-69
2022/09/05 03:12:00;;;;;;;6.13;4.10;;;;;;;18.18;69.44;100950.47;4097152;28;20347;-70
2022/09/05 03:14:59;;;;;;;5.72;3.83;;;;;;;18.20;69.70;100953.06;4093993;29;20039;-70
2022/09/05 03:17:36;;;;;;;8.43;4.05;;;;;;;18.15;69.49;100958.41;4096198;28;20509;-70
2022/09/05 03:20:13;;;;;;;7.45;4.25;;;;;;;18.10;69.68;100955.78;4099005;28;20054;-70
2022/09/05 03:22:53;;;;;;;7.15;3.70;;;;;;;18.07;69.90;100953.19;4097241;28;20039;-70
2022/09/05 03:25:55;;;;;;;7.13;3.58;;;;;;;18.03;69.86;100953.22;4099750;29;20050;-69
2022/09/05 03:28:36;;;;;;;5.35;4.10;;;;;;;18.01;69.98;100961.13;4076846;29;20052;-70
2022/09/05 03:30:54;;;;;;;5.88;4.00;;;;;;;18.06;69.60;100959.34;4123274;28;20603;-70
2022/09/05 03:33:27;;;;;;;5.35;4.03;;;;;;;18.09;69.24;100954.06;4092434;29;20050;-70
2022/09/05 03:36:00;;;;;;;8.35;4.15;;;;;;;18.06;69.55;100959.34;4094721;29;20047;-71
2022/09/05 03:38:33;;;;;;;6.00;3.83;;;;;;;18.00;69.84;100967.25;4115697;28;20093;-72
2022/09/05 03:40:51;;;;;;;7.07;4.30;;;;;;;18.03;69.63;100954.09;4096756;29;20045;-70
2022/09/05 03:43:24;;;;;;;7.72;4.10;;;;;;;18.04;69.45;100965.50;4130047;28;20046;-70
2022/09/05 03:45:51;;;;;;;9.90;4.30;;;;;;;18.04;69.16;100957.59;4097351;29;20031;-71
2022/09/05 03:48:27;;;;;;;5.60;4.20;;;;;;;18.00;69.64;100961.13;4094018;28;20054;-71
2022/09/05 03:50:48;;;;;;;5.93;4.28;;;;;;;18.01;69.63;100962.91;4096140;29;20094;-70
2022/09/05 03:53:34;;;;;;;4.63;3.95;;;;;;;18.01;69.61;100960.25;4094717;29;20035;-70
2022/09/05 03:56:12;;;;;;;7.03;3.65;;;;;;;17.95;69.81;100961.19;4100897;28;20047;-70
2022/09/05 03:58:55;;;;;;;6.85;4.30;;;;;;;17.89;69.82;100956.81;4099788;28;20039;-71
2022/09/05 04:01:05;;;;;;;5.25;3.80;;;;;;;17.92;69.84;100963.84;4100172;28;20151;-71
2022/09/05 04:03:38;;;;;;;8.05;4.18;;;;;;;17.99;69.54;100965.53;4097205;29;20039;-70
2022/09/05 04:06:11;;;;;;;4.85;3.97;;;;;;;17.94;69.37;100965.56;4111003;28;20054;-70
2022/09/05 04:08:42;;;;;;;7.40;4.05;;;;;;;17.96;69.44;100953.28;4098474;28;20045;-69
2022/09/05 04:10:55;;;;;;;8.55;4.82;;;;;;;17.98;69.60;100960.28;4098577;28;20047;-69
2022/09/05 04:13:06;;;;;;;7.53;3.80;;;;;;;17.94;69.80;100962.94;4095618;28;20038;-69
2022/09/05 04:15:16;;;;;;;8.82;4.50;;;;;;;17.95;69.90;100956.78;4098985;29;20982;-69
2022/09/05 04:17:27;;;;;;;4.88;3.72;;;;;;;17.95;70.10;100954.16;4096823;28;20051;-69
2022/09/05 04:19:38;;;;;;;6.32;3.88;;;;;;;17.98;69.93;100957.66;4107533;28;20078;-69
2022/09/05 04:21:48;;;;;;;7.32;3.97;;;;;;;17.98;69.60;100955.03;4095778;29;20043;-69
2022/09/05 04:24:06;;;;;;;5.60;4.18;;;;;;;17.95;69.66;100966.44;4125543;28;20042;-69
2022/09/05 04:26:24;;;;;;;7.05;4.07;;;;;;;17.90;69.42;100963.84;4098330;28;20051;-70
2022/09/05 04:28:52;;;;;;;5.88;4.03;;;;;;;17.88;69.97;100967.34;4099252;28;20035;-69
2022/09/05 04:31:00;;;;;;;5.65;3.97;;;;;;;17.87;69.90;100973.47;4097073;29;20061;-70
2022/09/05 04:33:17;;;;;;;8.60;4.40;;;;;;;17.89;69.74;100964.69;4099602;28;20126;-69
2022/09/05 04:35:36;;;;;;;5.60;4.28;;;;;;;17.85;69.55;100965.59;4098196;29;20035;-70
2022/09/05 04:37:58;;;;;;;9.18;4.38;;;;;;;17.86;69.68;100966.47;4095256;29;20102;-69
2022/09/05 04:40:31;;;;;;;8.73;4.50;;;;;;;17.83;69.58;100971.75;4094616;29;20070;-69
2022/09/05 04:42:38;;;;;;;5.72;3.92;;;;;;;17.82;70.24;100977.91;4100195;28;20126;-70
2022/09/05 04:44:47;;;;;;;5.22;3.88;;;;;;;17.86;70.20;100977.00;4099008;28;20073;-70
2022/09/05 04:46:54;;;;;;;6.88;4.22;;;;;;;17.87;69.80;100978.75;4099405;28;20050;-69
2022/09/05 04:49:05;;;;;;;8.30;4.10;;;;;;;17.88;69.97;100980.50;4099577;29;20069;-70
2022/09/05 04:51:22;;;;;;;4.88;3.65;;;;;;;17.86;70.50;100980.50;4098418;28;20449;-69
2022/09/05 04:53:40;;;;;;;5.47;3.67;;;;;;;17.88;70.33;100981.34;4098332;28;20035;-70
2022/09/05 04:55:47;;;;;;;8.02;4.40;;;;;;;17.90;70.20;100979.66;4098308;29;20049;-69
2022/09/05 04:57:58;;;;;;;6.25;4.13;;;;;;;17.94;70.18;100981.34;4083633;29;20048;-70
2022/09/05 05:00:06;;;;;;;9.10;4.65;;;;;;;17.96;70.30;100984.84;4114391;28;20039;-70
2022/09/05 05:02:36;;;;;;;6.30;4.30;;;;;;;17.95;70.30;100990.97;4087558;28;20039;-70
2022/09/05 05:05:02;;;;;;;7.30;4.90;;;;;;;17.97;70.20;100996.22;4098874;29;20043;-70
2022/09/05 05:07:34;;;;;;;6.93;4.63;;;;;;;18.04;70.40;100990.03;4099550;28;20039;-69
2022/09/05 05:09:43;;;;;;;7.25;4.50;;;;;;;18.06;70.15;100990.03;4082304;29;20044;-69
2022/09/05 05:11:53;;;;;;;6.25;4.38;;;;;;;18.06;70.33;100990.91;4099537;28;20043;-70
2022/09/05 05:14:21;;;;;;;6.60;4.20;;;;;;;18.05;70.56;100993.56;4093813;28;20054;-69
2022/09/05 05:16:51;;;;;;;16.77;7.00;;;;;;;18.16;69.61;101002.22;4097539;28;20188;-70
2022/09/05 05:19:18;;;;;;;9.73;5.55;;;;;;;18.24;69.66;100995.13;4094588;29;20553;-69
2022/09/05 05:21:26;;;;;;;10.45;4.75;;;;;;;18.29;69.75;101003.84;4099411;28;20501;-70
2022/09/05 05:23:34;;;;;;;6.68;4.30;;;;;;;18.33;69.85;101002.09;4096260;28;20047;-70
2022/09/05 05:25:46;;;;;;;11.38;6.18;;;;;;;18.39;69.34;101001.16;4099084;28;20066;-70
2022/09/05 05:28:10;;;;;;;9.50;5.30;;;;;;;18.39;69.10;101004.66;4099417;28;20412;-69
2022/09/05 05:30:29;;;;;;;8.10;5.55;;;;;;;18.39;69.58;101007.28;4099129;28;20143;-70
2022/09/05 05:32:40;;;;;;;8.98;5.47;;;;;;;18.43;69.28;101005.50;4099359;28;20062;-69
2022/09/05 05:34:55;;;;;;;9.05;4.78;;;;;;;18.45;69.20;101006.34;4081694;29;20537;-69
2022/09/05 05:37:05;;;;;;;10.07;6.60;;;;;;;18.49;68.58;101006.31;4123096;28;20049;-70
2022/09/05 05:39:14;;;;;;;13.75;6.63;;;;;;;18.52;68.46;101005.41;4099223;28;20043;-70
2022/09/05 05:41:22;;;;;;;6.20;4.72;;;;;;;18.56;68.72;101014.13;4101995;28;20043;-70
2022/09/05 05:43:34;;;;;;;8.90;5.45;;;;;;;18.54;69.11;101008.03;4100622;28;20047;-70
2022/09/05 05:45:37;;;;;;;13.20;5.38;;;;;;;18.52;69.52;101017.72;4132970;28;20034;-69
2022/09/05 05:47:46;;;;;;;7.47;5.55;;;;;;;18.54;69.33;101023.81;4101945;28;20051;-70
2022/09/05 05:49:59;;;;;;;6.55;5.30;;;;;;;18.54;69.33;101034.34;4102195;28;20047;-70
2022/09/05 05:52:33;;;;;;;8.90;5.97;;;;;;;18.56;68.86;101022.03;4102611;28;20054;-70
2022/09/05 05:54:45;;;;;;;12.02;7.40;;;;;;;18.62;67.95;101027.25;4084501;29;20044;-69
2022/09/05 05:57:14;;;;;;;11.38;7.70;;;;;;;18.70;67.38;101032.44;4100702;29;20551;-70
2022/09/05 05:59:40;;;;;;;13.55;5.85;;;;;;;18.70;66.69;101027.19;4102097;28;20070;-70
2022/09/05 06:02:41;;;;;;;8.48;5.38;;;;;;;18.65;67.31;101029.88;4100030;28;20051;-70
2022/09/05 06:05:19;;;;;;;8.00;5.35;;;;;;;18.65;67.35;101027.22;4101306;28;20066;-70
2022/09/05 06:07:34;;;;;;;12.00;4.93;;;;;;;18.65;67.26;101029.88;4101803;28;20126;-70
2022/09/05 06:10:15;;;;;;;7.18;4.40;;;;;;;18.65;68.25;101028.09;4132723;28;20125;-70
2022/09/05 06:13:18;;;;;;;10.65;6.78;;;;;;;18.66;68.27;101028.94;4097542;28;20126;-70
2022/09/05 06:16:12;;;;;;;11.18;5.88;;;;;;;18.75;67.24;101030.63;4085889;29;20044;-69
2022/09/05 06:19:02;;;;;;;8.95;5.65;;;;;;;18.82;66.72;101030.56;4085730;29;20101;-69
2022/09/05 06:21:48;;;;;;;9.95;6.07;;;;;;;18.84;67.16;101027.91;4051865;29;20057;-70
2022/09/05 06:24:44;;;;;;;7.28;5.15;;;;;;;18.92;67.21;101027.84;4094896;29;20047;-69
2022/09/05 06:27:19;;;;;;;8.52;4.43;;;;;;;18.91;68.08;101029.63;4084097;29;20101;-69
2022/09/05 06:29:34;;;;;;;8.07;4.97;;;;;;;18.96;67.89;101033.06;4084375;29;20047;-69
2022/09/05 06:32:00;;;;;;;9.43;5.57;;;;;;;19.05;67.68;101036.50;4084685;28;20036;-69
2022/09/05 06:34:21;;;;;;;6.38;4.72;;;;;;;19.11;67.28;101036.41;4115831;28;20050;-70
2022/09/05 06:36:54;;;;;;;10.40;4.50;;;;;;;19.19;67.37;101040.69;4099714;28;20405;-69
2022/09/05 06:39:05;;;;;;;8.38;5.15;;;;;;;19.26;66.86;101041.50;4094343;29;20404;-70
2022/09/05 06:41:26;;;;;;;9.02;4.82;;;;;;;19.33;66.58;101043.19;4101308;28;20058;-70
2022/09/05 06:43:43;;;;;;;8.25;4.57;;;;;;;19.39;66.81;101039.59;4100228;28;20043;-69
2022/09/05 06:46:25;;;;;;;10.55;6.85;;;;;;;19.46;65.64;101035.97;4101266;28;20306;-70
2022/09/05 06:48:55;;;;;;;12.95;6.80;;;;;;;19.45;65.74;101049.16;4067825;29;20048;-70
2022/09/05 06:51:58;;;;;;;9.05;5.35;;;;;;;19.46;65.51;101037.72;4114924;28;20065;-70
2022/09/05 06:54:34;;;;;;;7.32;5.25;;;;;;;19.50;66.00;101045.56;4089167;29;20421;-69
2022/09/05 06:57:03;;;;;;;8.10;5.57;;;;;;;19.54;65.57;101047.28;4101103;28;20043;-69
2022/09/05 06:59:35;;;;;;;7.78;4.88;;;;;;;19.51;65.97;101043.84;4101167;28;20039;-70
2022/09/05 07:01:46;;;;;;;10.02;6.38;;;;;;;19.51;65.52;101044.69;4082418;29;20039;-70
2022/09/05 07:04:11;;;;;;;;;;;;;;;19.42;65.86;101049.19;4096334;28;20145;-69
2022/09/05 07:06:43;;;;;;;9.48;5.78;;;;;;;19.54;65.38;101055.19;4099038;28;19926;-69
2022/09/05 07:09:21;;;;;;;10.50;6.10;;;;;;;19.63;65.56;101055.97;4100287;28;21417;-69
2022/09/05 07:11:38;;;;;;;12.90;6.45;;;;;;;19.69;64.80;101061.16;4100573;28;20094;-69
2022/09/05 07:13:52;;;;;;;11.48;6.93;;;;;;;19.75;64.79;101062.84;4100523;28;20130;-70
2022/09/05 07:16:01;;;;;;;11.75;7.10;;;;;;;19.81;64.62;101065.41;4108409;28;20049;-70
2022/09/05 07:18:12;;;;;;;10.35;6.68;;;;;;;19.87;64.74;101058.28;4098332;28;20102;-70
2022/09/05 07:20:22;;;;;;;10.30;7.53;;;;;;;19.98;63.99;101063.41;4104323;28;20037;-69
2022/09/05 07:22:33;;;;;;;15.13;7.32;;;;;;;20.03;64.01;101071.25;4100705;29;20065;-69
2022/09/05 07:24:53;;;;;;;;;;;;;;;19.87;64.16;101063.56;4100892;29;20413;-70
2022/09/05 07:27:00;;;;;;;13.63;7.65;;;;;;;19.94;64.14;101063.47;4099693;28;19923;-69
2022/09/05 07:29:06;;;;;;;11.80;7.60;;;;;;;20.03;63.55;101063.31;4082003;29;20418;-69
2022/09/05 07:31:16;;;;;;;8.90;6.95;;;;;;;20.12;63.39;101068.47;4131296;28;20542;-70
2022/09/05 07:33:40;;;;;;;13.30;9.10;;;;;;;20.26;62.91;101065.59;4129741;28;20057;-70
2022/09/05 07:35:44;;;;;;;12.68;8.07;;;;;;;20.29;62.98;101065.56;4100120;28;20091;-69
2022/09/05 07:37:53;;;;;;;11.95;8.13;;;;;;;20.27;62.64;101070.00;4083449;29;20465;-70
2022/09/05 07:39:59;;;;;;;9.15;7.03;;;;;;;20.33;62.63;101074.31;4099764;28;20434;-70
2022/09/05 07:42:19;;;;;;;10.18;8.07;;;;;;;20.38;62.44;101077.72;4100426;28;20047;-69
2022/09/05 07:44:26;;;;;;;9.38;7.53;;;;;;;20.41;62.64;101077.69;4100073;28;20036;-69
2022/09/05 07:46:33;;;;;;;10.40;8.77;;;;;;;20.42;62.54;101071.50;4099169;29;20046;-70
2022/09/05 07:48:39;;;;;;;18.45;7.45;;;;;;;20.51;62.35;101081.91;4099777;28;20047;-69
2022/09/05 07:50:50;;;;;;;8.68;6.82;;;;;;;20.62;62.28;101072.91;4098051;28;20412;-70
2022/09/05 07:53:16;;;;;;;12.98;7.28;;;;;;;20.71;62.16;101075.44;4094233;28;20047;-69
2022/09/05 07:55:41;;;;;;;9.80;6.82;;;;;;;20.75;61.75;101071.88;4099399;28;20049;-69
2022/09/05 07:58:10;;;;;;;8.50;6.22;;;;;;;20.83;61.54;101075.22;4124896;28;20050;-69
2022/09/05 08:00:19;;;;;;;8.55;6.80;;;;;;;20.96;60.48;101073.22;4098820;29;20055;-70
2022/09/05 08:02:30;;;;;;;9.75;6.18;;;;;;;20.97;60.08;101067.03;4098294;28;20053;-69
2022/09/05 08:04:35;;;;;;;17.17;7.68;;;;;;;21.05;59.24;101069.53;4098655;28;20489;-70
2022/09/05 08:06:40;;;;;;;9.10;6.53;;;;;;;21.12;59.13;101071.16;4099882;28;20122;-70
2022/09/05 08:09:08;;;;;;;8.20;5.18;;;;;;;21.06;59.63;101066.84;4098893;29;20043;-69
2022/09/05 08:11:36;;;;;;;9.98;5.97;;;;;;;21.13;59.72;101067.63;4099176;28;20049;-70
2022/09/05 08:13:56;;;;;;;8.35;5.00;;;;;;;21.23;59.26;101061.25;4099513;28;20536;-69
2022/09/05 08:16:22;;;;;;;9.90;5.60;;;;;;;21.33;59.41;101061.91;4099992;28;20493;-69
2022/09/05 08:18:37;;;;;;;12.35;7.15;;;;;;;21.53;59.08;101061.50;4096156;28;20065;-69
2022/09/05 08:20:50;;;;;;;14.15;9.60;;;;;;;21.66;57.89;101055.97;4097108;28;20047;-69
2022/09/05 08:23:02;;;;;;;11.07;8.52;;;;;;;21.72;57.80;101061.97;4122810;28;20046;-69
2022/09/05 08:25:14;;;;;;;17.27;9.90;;;;;;;21.75;56.94;101063.69;4099057;28;20126;-69
2022/09/05 08:27:24;;;;;;;12.80;8.30;;;;;;;21.78;57.54;101053.03;4098883;28;20126;-69
2022/09/05 08:29:32;;;;;;;12.75;9.30;;;;;;;21.82;56.88;101053.84;4096650;28;20070;-69
2022/09/05 08:31:41;;;;;;;11.45;7.55;;;;;;;21.79;57.33;101055.63;4082625;29;20039;-69
2022/09/05 08:33:47;;;;;;;10.93;6.68;;;;;;;21.86;56.95;101058.13;4099020;28;20054;-69
2022/09/05 08:35:55;;;;;;;10.13;6.40;;;;;;;21.86;56.96;101059.03;4098042;28;20073;-69
2022/09/05 08:38:03;;;;;;;8.55;5.60;;;;;;;21.93;57.44;101060.63;4099645;28;20498;-69
2022/09/05 08:40:13;;;;;;;10.77;5.47;;;;;;;22.02;57.08;101058.66;4099820;28;20134;-69
2022/09/05 08:42:31;;;;;;;8.77;4.63;;;;;;;22.10;57.19;101051.41;4099608;28;20043;-69
2022/09/05 08:44:55;;;;;;;9.73;5.45;;;;;;;22.17;57.21;101053.00;4098662;28;20039;-69
2022/09/05 08:47:28;;;;;;;7.68;5.50;;;;;;;22.26;57.05;101051.91;4095394;29;20035;-69
2022/09/05 08:50:08;;;;;;;10.55;5.32;;;;;;;22.36;56.93;101053.44;4099641;29;20524;-69
2022/09/05 08:52:16;;;;;;;12.70;5.20;;;;;;;22.45;57.41;101047.88;4098446;29;20043;-69
2022/09/05 08:54:26;;;;;;;9.50;5.22;;;;;;;22.55;56.45;101048.53;4099298;28;20043;-69
2022/09/05 08:56:35;;;;;;;12.93;5.40;;;;;;;22.55;56.61;101045.88;4098964;28;20102;-69
2022/09/05 08:58:58;;;;;;;12.35;5.70;;;;;;;22.41;56.78;101046.22;4099290;28;20039;-69
2022/09/05 09:01:30;;;;;;;7.82;4.78;;;;;;;22.37;57.18;101046.34;4129124;28;20058;-69
2022/09/05 09:04:10;;;;;;;7.35;4.28;;;;;;;22.31;56.97;101049.97;4090340;29;20130;-69
2022/09/05 09:06:49;;;;;;;12.40;5.20;;;;;;;22.17;57.41;101052.13;4098474;28;20479;-70
2022/09/05 09:09:17;;;;;;;;;;;;;;;21.93;57.76;101054.44;4094838;29;20043;-69
2022/09/05 09:11:33;;;;;;;5.65;4.28;;;;;;;21.95;57.94;101052.66;4099510;28;20030;-70
2022/09/05 09:13:52;;;;;;;9.45;4.55;;;;;;;22.03;57.87;101060.41;4099026;28;20039;-69
2022/09/05 09:16:05;;;;;;;8.30;3.97;;;;;;;22.08;57.51;101058.53;4101138;28;20035;-69
2022/09/05 09:18:13;;;;;;;6.15;3.92;;;;;;;22.04;57.40;101062.16;4102497;29;20063;-71
2022/09/05 09:20:32;;;;;;;5.35;3.63;;;;;;;22.07;57.34;101062.94;4102740;28;20469;-71
2022/09/05 09:22:41;;;;;;;7.07;3.90;;;;;;;22.12;57.72;101065.47;4101507;28;20031;-71
2022/09/05 09:24:50;;;;;;;6.65;4.15;;;;;;;22.14;57.33;101059.22;4101940;28;20039;-70
2022/09/05 09:27:26;;;;;;;8.63;4.70;;;;;;;22.24;57.58;101059.88;4102421;28;20039;-70
2022/09/05 09:29:54;;;;;;;7.70;4.40;;;;;;;22.36;56.93;101052.56;4102328;28;20086;-69
2022/09/05 09:32:05;;;;;;;11.15;4.38;;;;;;;22.54;56.31;101057.38;4101957;28;20075;-69
2022/09/05 09:34:32;;;;;;;9.45;4.57;;;;;;;22.81;55.56;101053.13;4131637;28;20042;-69
2022/09/05 09:37:01;;;;;;;9.93;4.32;;;;;;;23.05;54.96;101045.41;4102137;28;20077;-69
2022/09/05 09:39:21;;;;;;;10.13;3.72;;;;;;;23.26;54.43;101045.72;4116997;28;20093;-70
2022/09/05 09:42:02;;;;;;;11.07;3.72;;;;;;;23.44;54.02;101039.03;4101510;28;20039;-70
2022/09/05 09:44:45;;;;;;;11.52;4.07;;;;;;;23.67;52.61;101031.22;4096122;29;20051;-69
2022/09/05 09:46:50;;;;;;;7.95;3.35;;;;;;;23.76;52.41;101029.16;4102163;28;20422;-69
2022/09/05 09:49:26;;;;;;;6.15;3.40;;;;;;;23.76;52.82;101031.81;4102057;28;20277;-69
2022/09/05 09:51:52;;;;;;;7.13;3.17;;;;;;;23.93;52.78;101018.91;4101826;28;20043;-69
2022/09/05 09:54:18;;;;;;;5.60;2.45;;;;;;;24.03;52.24;101028.34;4094699;29;20385;-69
2022/09/05 09:57:08;;;;;;;5.35;2.75;;;;;;;24.17;51.48;101022.56;4099923;29;20086;-69
2022/09/05 09:59:41;;;;;;;3.70;2.50;;;;;;;24.21;50.51;101028.63;4100623;29;20047;-69
2022/09/05 10:02:19;;;;;;;3.45;2.10;;;;;;;24.27;50.73;101020.47;4101422;28;20051;-68
2022/09/05 10:05:02;;;;;;;7.07;2.97;;;;;;;24.33;50.31;101014.06;4100700;28;20035;-69
2022/09/05 10:07:42;;;;;;;4.05;2.65;;;;;;;24.52;50.22;101022.28;4098477;28;20051;-69
2022/09/05 10:10:39;;;;;;;5.47;3.03;;;;;;;24.71;49.45;101012.75;4101863;28;20098;-68
2022/09/05 10:13:32;;;;;;;5.35;2.78;;;;;;;24.57;50.18;101012.34;4102784;28;20063;-69
2022/09/05 10:15:48;;;;;;;7.80;3.58;;;;;;;24.76;49.74;101007.25;4101540;28;20053;-69
2022/09/05 10:18:08;;;;;;;5.53;2.63;;;;;;;24.77;50.14;101013.47;4101298;28;20441;-69
2022/09/05 10:20:29;;;;;;;4.40;2.38;;;;;;;24.86;49.53;101013.13;4115718;28;20500;-69
2022/09/05 10:22:54;;;;;;;3.38;2.40;;;;;;;24.88;49.19;101013.91;4101546;29;20039;-69
2022/09/05 10:25:15;;;;;;;6.20;2.30;;;;;;;25.02;49.02;101005.44;4100060;29;20043;-69
2022/09/05 10:27:37;;;;;;;3.22;2.10;;;;;;;25.09;48.87;101007.81;4100370;28;20120;-69
2022/09/05 10:30:05;;;;;;;5.25;2.70;;;;;;;25.26;48.16;101000.97;4099537;28;20050;-68
2022/09/05 10:32:14;;;;;;;6.03;2.50;;;;;;;25.23;48.39;100998.41;4100236;29;20493;-69
2022/09/05 10:34:46;;;;;;;4.65;2.60;;;;;;;25.35;48.66;100999.78;4131922;28;20499;-69
2022/09/05 10:37:12;;;;;;;3.53;2.50;;;;;;;25.22;48.41;100986.91;4101245;28;20474;-69
2022/09/05 10:39:18;;;;;;;9.80;3.00;;;;;;;25.43;47.76;100987.03;4100729;28;20038;-69
2022/09/05 10:41:38;;;;;;;4.55;2.85;;;;;;;25.47;47.34;100971.81;4101203;28;20040;-69
2022/09/05 10:43:49;;;;;;;7.10;2.20;;;;;;;25.34;48.45;100966.97;4101038;28;20047;-69
2022/09/05 10:46:02;;;;;;;5.60;2.47;;;;;;;25.38;48.26;100971.25;4101353;28;20055;-69
2022/09/05 10:48:11;;;;;;;8.57;2.25;;;;;;;25.61;47.07;100972.13;4101256;28;20058;-69
2022/09/05 10:50:28;;;;;;;5.63;2.75;;;;;;;25.71;46.81;100962.81;4130502;28;20047;-68
2022/09/05 10:52:36;;;;;;;4.15;2.00;;;;;;;25.70;47.13;100958.44;4098678;29;20481;-69
2022/09/05 10:54:54;;;;;;;3.80;2.05;;;;;;;25.73;47.02;100963.63;4100724;29;20062;-69
2022/09/05 10:57:29;;;;;;;5.07;2.17;;;;;;;25.91;46.88;100956.66;4131966;28;20138;-69